Bookmark and Share
Track history (hours):
 

Ocean Voyager

Last reported at 2014-Apr-10 18:14 UTC. Time now 2014-Apr-19 00:15 UTC.
Position N 36°43' E 005°11'.
Warning: this ship's position is 8 days out of date.

Length 134 m; draft 7.3 m.

Type: Cargo ship. MMSI: 375019000.

NotesDate/timePositionNaut miles runAvg speedWind from/ knotsBaromVisibWave heightAir tempDewpointWater temp
2014-Apr-10 18:14N 36°43' E 005°11'0 0.0
2014-Apr-08 17:29N 36°43' E 005°11'0 0.0
2014-Apr-08 16:32N 36°43' E 005°11'  
2014-Apr-04 00:03N 37°31' E 010°57'12 7.8
2014-Apr-03 22:29N 37°27' E 011°11'26 8.2
2014-Apr-03 19:17N 37°17' E 011°42'17 9.8
2014-Apr-03 17:33N 37°10' E 012°01'3210.4
2014-Apr-03 14:31N 36°60' E 012°38'5010.1
2014-Apr-03 09:32N 36°42' E 013°37'1010.3
2014-Apr-03 08:33N 36°39' E 013°49'1010.4
2014-Apr-03 07:33N 36°35' E 014°01'1110.6
2014-Apr-03 06:33N 36°31' E 014°14'2110.3
2014-Apr-03 04:33N 36°24' E 014°37'1110.0
2014-Apr-03 03:30N 36°20' E 014°50'9 9.8
2014-Apr-03 02:33N 36°20' E 015°01'416 9.4
2014-Apr-01 06:12N 36°27' E 023°38'710.5
2014-Apr-01 05:29N 36°33' E 023°44'1010.5
2014-Apr-01 04:33N 36°40' E 023°52'1010.2
2014-Apr-01 03:33N 36°49' E 023°58'1010.1
2014-Apr-01 02:33N 36°58' E 024°03'1210.3
2014-Apr-01 01:22N 37°09' E 024°09'8 9.9
2014-Apr-01 00:31N 37°17' E 024°13'1010.1
2014-Mar-31 23:33N 37°26' E 024°18'2110.3
2014-Mar-31 21:32N 37°44' E 024°30'1111.0
2014-Mar-31 20:33N 37°55' E 024°34'  

Dump ship's entire track history

sailing weather and tide predictions

Ocean Voyager — J8B3139 — position and weather